sensor_id;sensor_type;location;lat;lon;timestamp;P1;durP1;ratioP1;P2;durP2;ratioP2
29776;SDS011;16677;52.224;7.484;2022-11-15T00:01:06;18.50;;;15.77;;
29776;SDS011;16677;52.224;7.484;2022-11-15T00:03:46;18.00;;;15.70;;
29776;SDS011;16677;52.224;7.484;2022-11-15T00:06:17;18.73;;;16.67;;
29776;SDS011;16677;52.224;7.484;2022-11-15T00:08:45;17.03;;;15.20;;
29776;SDS011;16677;52.224;7.484;2022-11-15T00:11:13;18.27;;;15.87;;
29776;SDS011;16677;52.224;7.484;2022-11-15T00:13:40;18.83;;;15.60;;
29776;SDS011;16677;52.224;7.484;2022-11-15T00:16:08;16.53;;;14.70;;
29776;SDS011;16677;52.224;7.484;2022-11-15T00:18:52;17.07;;;14.67;;
29776;SDS011;16677;52.224;7.484;2022-11-15T00:21:35;18.50;;;15.17;;
29776;SDS011;16677;52.224;7.484;2022-11-15T00:24:19;18.37;;;15.37;;
29776;SDS011;16677;52.224;7.484;2022-11-15T00:26:50;17.43;;;15.27;;
29776;SDS011;16677;52.224;7.484;2022-11-15T00:29:21;19.97;;;15.03;;
29776;SDS011;16677;52.224;7.484;2022-11-15T00:31:49;19.73;;;15.67;;
29776;SDS011;16677;52.224;7.484;2022-11-15T00:34:16;18.00;;;16.10;;
29776;SDS011;16677;52.224;7.484;2022-11-15T00:36:45;18.20;;;15.30;;
29776;SDS011;16677;52.224;7.484;2022-11-15T00:39:12;20.10;;;15.43;;
29776;SDS011;16677;52.224;7.484;2022-11-15T00:41:40;19.20;;;14.90;;
29776;SDS011;16677;52.224;7.484;2022-11-15T00:44:10;18.97;;;15.47;;
29776;SDS011;16677;52.224;7.484;2022-11-15T00:46:41;19.20;;;15.00;;
29776;SDS011;16677;52.224;7.484;2022-11-15T00:49:15;17.60;;;15.13;;
29776;SDS011;16677;52.224;7.484;2022-11-15T00:51:43;22.57;;;16.50;;
29776;SDS011;16677;52.224;7.484;2022-11-15T00:54:20;18.03;;;15.27;;
29776;SDS011;16677;52.224;7.484;2022-11-15T00:56:47;20.20;;;15.83;;
29776;SDS011;16677;52.224;7.484;2022-11-15T00:59:15;17.73;;;15.10;;
29776;SDS011;16677;52.224;7.484;2022-11-15T01:01:44;20.77;;;15.67;;
29776;SDS011;16677;52.224;7.484;2022-11-15T01:04:13;17.30;;;15.10;;
29776;SDS011;16677;52.224;7.484;2022-11-15T01:06:44;18.23;;;15.37;;
29776;SDS011;16677;52.224;7.484;2022-11-15T01:09:15;16.93;;;14.97;;
29776;SDS011;16677;52.224;7.484;2022-11-15T01:11:47;17.53;;;14.83;;
29776;SDS011;16677;52.224;7.484;2022-11-15T01:14:15;16.23;;;13.70;;
29776;SDS011;16677;52.224;7.484;2022-11-15T01:16:50;17.17;;;14.60;;
29776;SDS011;16677;52.224;7.484;2022-11-15T01:19:20;22.47;;;15.23;;
29776;SDS011;16677;52.224;7.484;2022-11-15T01:22:01;18.33;;;15.47;;
29776;SDS011;16677;52.224;7.484;2022-11-15T01:24:36;16.63;;;13.83;;
29776;SDS011;16677;52.224;7.484;2022-11-15T01:27:23;16.63;;;14.20;;
29776;SDS011;16677;52.224;7.484;2022-11-15T01:30:08;15.33;;;13.73;;
29776;SDS011;16677;52.224;7.484;2022-11-15T01:32:36;15.97;;;13.53;;
29776;SDS011;16677;52.224;7.484;2022-11-15T01:35:07;17.73;;;14.50;;
29776;SDS011;16677;52.224;7.484;2022-11-15T01:37:38;16.70;;;13.87;;
29776;SDS011;16677;52.224;7.484;2022-11-15T01:56:35;15.43;;;12.97;;
29776;SDS011;16677;52.224;7.484;2022-11-15T01:59:09;14.03;;;12.53;;
29776;SDS011;16677;52.224;7.484;2022-11-15T02:01:39;14.57;;;12.27;;
29776;SDS011;16677;52.224;7.484;2022-11-15T02:06:38;14.27;;;12.77;;
29776;SDS011;16677;52.224;7.484;2022-11-15T02:09:08;15.23;;;13.53;;
29776;SDS011;16677;52.224;7.484;2022-11-15T02:11:47;15.60;;;12.93;;
29776;SDS011;16677;52.224;7.484;2022-11-15T02:14:19;15.73;;;12.40;;
29776;SDS011;16677;52.224;7.484;2022-11-15T02:30:48;13.90;;;11.67;;
29776;SDS011;16677;52.224;7.484;2022-11-15T02:33:47;13.43;;;12.03;;
29776;SDS011;16677;52.224;7.484;2022-11-15T02:36:37;15.50;;;12.43;;
29776;SDS011;16677;52.224;7.484;2022-11-15T02:39:13;16.23;;;12.87;;
29776;SDS011;16677;52.224;7.484;2022-11-15T02:42:13;17.07;;;12.80;;
29776;SDS011;16677;52.224;7.484;2022-11-15T02:45:04;14.73;;;11.97;;
29776;SDS011;16677;52.224;7.484;2022-11-15T02:47:40;18.37;;;12.23;;
29776;SDS011;16677;52.224;7.484;2022-11-15T02:50:12;14.27;;;12.57;;
29776;SDS011;16677;52.224;7.484;2022-11-15T02:52:52;14.23;;;12.47;;
29776;SDS011;16677;52.224;7.484;2022-11-15T02:55:34;13.10;;;11.80;;
29776;SDS011;16677;52.224;7.484;2022-11-15T03:06:42;13.77;;;11.47;;
29776;SDS011;16677;52.224;7.484;2022-11-15T03:15:13;14.07;;;11.93;;
29776;SDS011;16677;52.224;7.484;2022-11-15T03:18:15;17.03;;;13.03;;
29776;SDS011;16677;52.224;7.484;2022-11-15T03:20:48;13.00;;;11.37;;
29776;SDS011;16677;52.224;7.484;2022-11-15T03:23:19;14.70;;;11.87;;
29776;SDS011;16677;52.224;7.484;2022-11-15T03:25:48;14.70;;;12.97;;
29776;SDS011;16677;52.224;7.484;2022-11-15T03:28:26;13.70;;;12.13;;
29776;SDS011;16677;52.224;7.484;2022-11-15T03:31:31;14.10;;;11.97;;
29776;SDS011;16677;52.224;7.484;2022-11-15T03:34:23;14.30;;;12.30;;
29776;SDS011;16677;52.224;7.484;2022-11-15T03:37:30;14.77;;;11.70;;
29776;SDS011;16677;52.224;7.484;2022-11-15T03:40:11;15.57;;;12.40;;
29776;SDS011;16677;52.224;7.484;2022-11-15T03:42:45;14.03;;;11.90;;
29776;SDS011;16677;52.224;7.484;2022-11-15T03:45:36;12.97;;;11.67;;
29776;SDS011;16677;52.224;7.484;2022-11-15T03:48:17;14.13;;;12.00;;
29776;SDS011;16677;52.224;7.484;2022-11-15T03:50:51;14.43;;;12.07;;
29776;SDS011;16677;52.224;7.484;2022-11-15T03:53:22;13.20;;;11.80;;
29776;SDS011;16677;52.224;7.484;2022-11-15T03:55:56;14.30;;;12.80;;
29776;SDS011;16677;52.224;7.484;2022-11-15T03:58:40;13.07;;;11.77;;
29776;SDS011;16677;52.224;7.484;2022-11-15T04:01:07;15.63;;;12.57;;
29776;SDS011;16677;52.224;7.484;2022-11-15T04:03:41;12.87;;;11.57;;
29776;SDS011;16677;52.224;7.484;2022-11-15T04:06:08;13.70;;;12.30;;
29776;SDS011;16677;52.224;7.484;2022-11-15T04:08:37;14.47;;;12.47;;
29776;SDS011;16677;52.224;7.484;2022-11-15T04:11:09;15.23;;;13.37;;
29776;SDS011;16677;52.224;7.484;2022-11-15T04:13:36;14.80;;;12.33;;
29776;SDS011;16677;52.224;7.484;2022-11-15T04:16:04;12.70;;;11.40;;
29776;SDS011;16677;52.224;7.484;2022-11-15T04:18:34;13.37;;;12.07;;
29776;SDS011;16677;52.224;7.484;2022-11-15T04:21:15;14.30;;;11.50;;
29776;SDS011;16677;52.224;7.484;2022-11-15T04:49:06;14.53;;;12.67;;
29776;SDS011;16677;52.224;7.484;2022-11-15T04:51:37;12.97;;;11.57;;
29776;SDS011;16677;52.224;7.484;2022-11-15T04:54:36;14.10;;;12.53;;
29776;SDS011;16677;52.224;7.484;2022-11-15T05:26:51;12.97;;;11.23;;
29776;SDS011;16677;52.224;7.484;2022-11-15T06:12:05;13.47;;;10.77;;
29776;SDS011;16677;52.224;7.484;2022-11-15T06:14:32;14.50;;;11.20;;
29776;SDS011;16677;52.224;7.484;2022-11-15T06:16:59;15.67;;;11.10;;
29776;SDS011;16677;52.224;7.484;2022-11-15T06:19:26;13.47;;;10.97;;
29776;SDS011;16677;52.224;7.484;2022-11-15T06:21:55;16.90;;;12.03;;
29776;SDS011;16677;52.224;7.484;2022-11-15T06:24:22;12.87;;;11.57;;
29776;SDS011;16677;52.224;7.484;2022-11-15T06:26:49;15.90;;;11.90;;
29776;SDS011;16677;52.224;7.484;2022-11-15T06:29:16;12.93;;;11.37;;
29776;SDS011;16677;52.224;7.484;2022-11-15T06:31:43;16.27;;;12.57;;
29776;SDS011;16677;52.224;7.484;2022-11-15T06:34:11;16.17;;;13.47;;
29776;SDS011;16677;52.224;7.484;2022-11-15T06:36:38;16.13;;;11.47;;
29776;SDS011;16677;52.224;7.484;2022-11-15T06:39:05;14.33;;;12.47;;
29776;SDS011;16677;52.224;7.484;2022-11-15T06:41:48;15.70;;;12.00;;
29776;SDS011;16677;52.224;7.484;2022-11-15T06:44:18;14.77;;;12.10;;
29776;SDS011;16677;52.224;7.484;2022-11-15T06:46:45;13.87;;;11.40;;
29776;SDS011;16677;52.224;7.484;2022-11-15T06:49:11;15.70;;;11.97;;
29776;SDS011;16677;52.224;7.484;2022-11-15T06:51:38;16.20;;;12.37;;
29776;SDS011;16677;52.224;7.484;2022-11-15T06:54:09;15.33;;;11.73;;
29776;SDS011;16677;52.224;7.484;2022-11-15T06:56:36;12.27;;;10.97;;
29776;SDS011;16677;52.224;7.484;2022-11-15T06:59:03;13.17;;;11.67;;
29776;SDS011;16677;52.224;7.484;2022-11-15T07:01:30;14.60;;;11.33;;
29776;SDS011;16677;52.224;7.484;2022-11-15T07:03:57;14.17;;;11.70;;
29776;SDS011;16677;52.224;7.484;2022-11-15T07:06:24;14.87;;;13.30;;
29776;SDS011;16677;52.224;7.484;2022-11-15T07:08:52;14.70;;;13.20;;
29776;SDS011;16677;52.224;7.484;2022-11-15T07:11:19;14.73;;;12.53;;
29776;SDS011;16677;52.224;7.484;2022-11-15T07:13:46;13.67;;;12.27;;
29776;SDS011;16677;52.224;7.484;2022-11-15T07:16:13;16.23;;;13.10;;
29776;SDS011;16677;52.224;7.484;2022-11-15T07:18:40;16.73;;;13.37;;
29776;SDS011;16677;52.224;7.484;2022-11-15T07:21:08;14.60;;;12.47;;
29776;SDS011;16677;52.224;7.484;2022-11-15T07:23:36;13.87;;;12.43;;
29776;SDS011;16677;52.224;7.484;2022-11-15T07:26:04;16.20;;;13.67;;
29776;SDS011;16677;52.224;7.484;2022-11-15T07:28:33;15.43;;;13.73;;
29776;SDS011;16677;52.224;7.484;2022-11-15T07:31:03;15.27;;;13.37;;
29776;SDS011;16677;52.224;7.484;2022-11-15T07:33:32;17.67;;;13.40;;
29776;SDS011;16677;52.224;7.484;2022-11-15T07:38:52;16.57;;;13.40;;
29776;SDS011;16677;52.224;7.484;2022-11-15T07:56:14;20.83;;;14.20;;
29776;SDS011;16677;52.224;7.484;2022-11-15T07:59:03;16.13;;;13.77;;
29776;SDS011;16677;52.224;7.484;2022-11-15T08:01:29;17.87;;;14.70;;
29776;SDS011;16677;52.224;7.484;2022-11-15T08:03:56;16.27;;;13.47;;
29776;SDS011;16677;52.224;7.484;2022-11-15T08:06:23;16.57;;;14.87;;
29776;SDS011;16677;52.224;7.484;2022-11-15T08:08:53;16.07;;;14.00;;
29776;SDS011;16677;52.224;7.484;2022-11-15T08:11:22;16.43;;;14.77;;
29776;SDS011;16677;52.224;7.484;2022-11-15T08:13:52;15.87;;;14.17;;
29776;SDS011;16677;52.224;7.484;2022-11-15T08:16:19;21.20;;;13.87;;
29776;SDS011;16677;52.224;7.484;2022-11-15T08:18:46;20.50;;;16.07;;
29776;SDS011;16677;52.224;7.484;2022-11-15T08:21:18;18.13;;;14.67;;
29776;SDS011;16677;52.224;7.484;2022-11-15T08:24:01;20.70;;;14.67;;
29776;SDS011;16677;52.224;7.484;2022-11-15T08:26:31;19.47;;;14.97;;
29776;SDS011;16677;52.224;7.484;2022-11-15T08:29:08;17.87;;;15.47;;
29776;SDS011;16677;52.224;7.484;2022-11-15T08:31:50;17.53;;;14.90;;
29776;SDS011;16677;52.224;7.484;2022-11-15T08:34:24;19.90;;;15.07;;
29776;SDS011;16677;52.224;7.484;2022-11-15T08:36:52;24.37;;;14.63;;
29776;SDS011;16677;52.224;7.484;2022-11-15T08:39:36;18.57;;;13.87;;
29776;SDS011;16677;52.224;7.484;2022-11-15T08:42:19;15.43;;;13.23;;
29776;SDS011;16677;52.224;7.484;2022-11-15T08:45:08;15.57;;;13.13;;
29776;SDS011;16677;52.224;7.484;2022-11-15T09:52:27;6.35;;;5.10;;
29776;SDS011;16677;52.224;7.484;2022-11-15T09:55:01;5.50;;;4.60;;
29776;SDS011;16677;52.224;7.484;2022-11-15T10:03:14;5.05;;;4.15;;
29776;SDS011;16677;52.224;7.484;2022-11-15T10:05:55;4.68;;;4.28;;
29776;SDS011;16677;52.224;7.484;2022-11-15T10:11:28;4.20;;;3.90;;
29776;SDS011;16677;52.224;7.484;2022-11-15T10:14:10;4.35;;;3.80;;
29776;SDS011;16677;52.224;7.484;2022-11-15T10:17:02;4.13;;;3.50;;
29776;SDS011;16677;52.224;7.484;2022-11-15T10:23:01;3.10;;;2.80;;
29776;SDS011;16677;52.224;7.484;2022-11-15T10:25:33;3.40;;;3.03;;
29776;SDS011;16677;52.224;7.484;2022-11-15T10:30:34;3.35;;;3.00;;
29776;SDS011;16677;52.224;7.484;2022-11-15T10:36:21;2.58;;;2.38;;
29776;SDS011;16677;52.224;7.484;2022-11-15T10:38:52;2.67;;;2.17;;
29776;SDS011;16677;52.224;7.484;2022-11-15T10:46:36;2.65;;;2.00;;
29776;SDS011;16677;52.224;7.484;2022-11-15T10:49:19;3.60;;;2.00;;
29776;SDS011;16677;52.224;7.484;2022-11-15T10:51:47;1.90;;;1.70;;
29776;SDS011;16677;52.224;7.484;2022-11-15T10:54:30;1.90;;;1.50;;
29776;SDS011;16677;52.224;7.484;2022-11-15T10:57:14;3.28;;;1.50;;
29776;SDS011;16677;52.224;7.484;2022-11-15T10:59:58;1.92;;;1.50;;
29776;SDS011;16677;52.224;7.484;2022-11-15T11:05:38;2.10;;;1.40;;
29776;SDS011;16677;52.224;7.484;2022-11-15T11:10:53;3.05;;;1.67;;
29776;SDS011;16677;52.224;7.484;2022-11-15T11:13:38;2.30;;;1.50;;
29776;SDS011;16677;52.224;7.484;2022-11-15T11:16:21;3.10;;;1.50;;
29776;SDS011;16677;52.224;7.484;2022-11-15T11:19:08;4.10;;;1.70;;
29776;SDS011;16677;52.224;7.484;2022-11-15T11:25:39;2.53;;;1.70;;
29776;SDS011;16677;52.224;7.484;2022-11-15T11:50:27;2.40;;;1.80;;
29776;SDS011;16677;52.224;7.484;2022-11-15T12:00:55;4.17;;;2.30;;
29776;SDS011;16677;52.224;7.484;2022-11-15T12:04:14;2.03;;;1.83;;
29776;SDS011;16677;52.224;7.484;2022-11-15T12:07:16;2.37;;;2.00;;
29776;SDS011;16677;52.224;7.484;2022-11-15T12:14:11;2.00;;;1.70;;
29776;SDS011;16677;52.224;7.484;2022-11-15T12:17:11;1.80;;;1.70;;
29776;SDS011;16677;52.224;7.484;2022-11-15T12:20:02;3.77;;;2.10;;
29776;SDS011;16677;52.224;7.484;2022-11-15T12:23:27;5.00;;;2.00;;
29776;SDS011;16677;52.224;7.484;2022-11-15T12:26:57;4.70;;;1.90;;
29776;SDS011;16677;52.224;7.484;2022-11-15T12:30:03;3.40;;;1.63;;
29776;SDS011;16677;52.224;7.484;2022-11-15T12:32:57;5.03;;;1.50;;
29776;SDS011;16677;52.224;7.484;2022-11-15T13:48:46;7.27;;;1.80;;
29776;SDS011;16677;52.224;7.484;2022-11-15T13:51:43;2.07;;;1.37;;
29776;SDS011;16677;52.224;7.484;2022-11-15T14:01:16;2.40;;;1.40;;
29776;SDS011;16677;52.224;7.484;2022-11-15T14:04:00;3.37;;;1.67;;
29776;SDS011;16677;52.224;7.484;2022-11-15T14:06:44;13.00;;;3.50;;
29776;SDS011;16677;52.224;7.484;2022-11-15T14:12:00;5.47;;;1.80;;
29776;SDS011;16677;52.224;7.484;2022-11-15T14:15:34;5.20;;;1.50;;
29776;SDS011;16677;52.224;7.484;2022-11-15T14:18:04;21.17;;;4.73;;
29776;SDS011;16677;52.224;7.484;2022-11-15T14:21:08;2.03;;;1.50;;
29776;SDS011;16677;52.224;7.484;2022-11-15T14:31:37;4.43;;;2.20;;
29776;SDS011;16677;52.224;7.484;2022-11-15T14:34:09;3.83;;;1.80;;
29776;SDS011;16677;52.224;7.484;2022-11-15T14:36:37;6.17;;;1.80;;
29776;SDS011;16677;52.224;7.484;2022-11-15T14:39:18;9.67;;;2.77;;
29776;SDS011;16677;52.224;7.484;2022-11-15T14:41:45;3.27;;;1.70;;
29776;SDS011;16677;52.224;7.484;2022-11-15T14:44:12;2.47;;;1.70;;
29776;SDS011;16677;52.224;7.484;2022-11-15T15:11:14;5.13;;;3.57;;
29776;SDS011;16677;52.224;7.484;2022-11-15T15:13:51;7.23;;;2.50;;
29776;SDS011;16677;52.224;7.484;2022-11-15T15:16:22;3.33;;;2.57;;
29776;SDS011;16677;52.224;7.484;2022-11-15T15:18:51;6.30;;;2.47;;
29776;SDS011;16677;52.224;7.484;2022-11-15T15:21:26;4.67;;;2.23;;
29776;SDS011;16677;52.224;7.484;2022-11-15T15:24:01;4.60;;;2.30;;
29776;SDS011;16677;52.224;7.484;2022-11-15T15:26:29;3.83;;;1.97;;
29776;SDS011;16677;52.224;7.484;2022-11-15T15:29:00;3.50;;;2.10;;
29776;SDS011;16677;52.224;7.484;2022-11-15T15:31:27;3.67;;;1.93;;
29776;SDS011;16677;52.224;7.484;2022-11-15T15:33:56;3.43;;;1.77;;
29776;SDS011;16677;52.224;7.484;2022-11-15T15:36:24;4.10;;;1.70;;
29776;SDS011;16677;52.224;7.484;2022-11-15T15:38:51;3.93;;;2.20;;
29776;SDS011;16677;52.224;7.484;2022-11-15T15:41:18;3.57;;;1.93;;
29776;SDS011;16677;52.224;7.484;2022-11-15T15:43:45;3.07;;;1.53;;
29776;SDS011;16677;52.224;7.484;2022-11-15T15:46:14;6.20;;;2.10;;
29776;SDS011;16677;52.224;7.484;2022-11-15T15:48:43;4.07;;;2.30;;
29776;SDS011;16677;52.224;7.484;2022-11-15T15:51:11;4.83;;;3.00;;
29776;SDS011;16677;52.224;7.484;2022-11-15T15:53:48;4.27;;;2.57;;
29776;SDS011;16677;52.224;7.484;2022-11-15T15:56:20;5.13;;;2.63;;
29776;SDS011;16677;52.224;7.484;2022-11-15T15:59:01;5.73;;;2.27;;
29776;SDS011;16677;52.224;7.484;2022-11-15T16:09:37;3.23;;;2.20;;
29776;SDS011;16677;52.224;7.484;2022-11-15T16:12:23;3.80;;;2.00;;
29776;SDS011;16677;52.224;7.484;2022-11-15T16:14:51;2.47;;;2.00;;
29776;SDS011;16677;52.224;7.484;2022-11-15T16:17:20;2.10;;;1.90;;
29776;SDS011;16677;52.224;7.484;2022-11-15T16:19:53;3.17;;;1.87;;
29776;SDS011;16677;52.224;7.484;2022-11-15T16:22:37;3.23;;;1.70;;
29776;SDS011;16677;52.224;7.484;2022-11-15T16:25:11;2.50;;;1.73;;
29776;SDS011;16677;52.224;7.484;2022-11-15T16:27:45;2.60;;;2.40;;
29776;SDS011;16677;52.224;7.484;2022-11-15T16:30:26;2.67;;;2.37;;
29776;SDS011;16677;52.224;7.484;2022-11-15T16:33:08;5.07;;;2.23;;
29776;SDS011;16677;52.224;7.484;2022-11-15T16:35:49;3.60;;;2.27;;
29776;SDS011;16677;52.224;7.484;2022-11-15T16:38:32;2.07;;;1.77;;
29776;SDS011;16677;52.224;7.484;2022-11-15T17:00:53;3.83;;;2.60;;
29776;SDS011;16677;52.224;7.484;2022-11-15T17:03:36;2.80;;;2.20;;
29776;SDS011;16677;52.224;7.484;2022-11-15T17:06:11;5.57;;;2.67;;
29776;SDS011;16677;52.224;7.484;2022-11-15T17:09:14;4.53;;;3.00;;
29776;SDS011;16677;52.224;7.484;2022-11-15T17:12:13;3.93;;;2.37;;
29776;SDS011;16677;52.224;7.484;2022-11-15T17:14:47;5.13;;;3.20;;
29776;SDS011;16677;52.224;7.484;2022-11-15T17:17:28;7.67;;;3.90;;
29776;SDS011;16677;52.224;7.484;2022-11-15T17:20:28;5.37;;;3.87;;
29776;SDS011;16677;52.224;7.484;2022-11-15T18:43:09;3.70;;;3.10;;
29776;SDS011;16677;52.224;7.484;2022-11-15T18:45:52;4.37;;;3.40;;
29776;SDS011;16677;52.224;7.484;2022-11-15T18:49:09;3.77;;;3.30;;
29776;SDS011;16677;52.224;7.484;2022-11-15T18:51:38;3.83;;;3.53;;
29776;SDS011;16677;52.224;7.484;2022-11-15T18:54:09;3.73;;;3.30;;
29776;SDS011;16677;52.224;7.484;2022-11-15T18:56:57;6.90;;;3.47;;
29776;SDS011;16677;52.224;7.484;2022-11-15T18:59:35;4.20;;;3.60;;
29776;SDS011;16677;52.224;7.484;2022-11-15T19:02:03;6.13;;;3.60;;
29776;SDS011;16677;52.224;7.484;2022-11-15T19:04:30;5.07;;;4.20;;
29776;SDS011;16677;52.224;7.484;2022-11-15T19:07:14;6.27;;;5.47;;
29776;SDS011;16677;52.224;7.484;2022-11-15T19:09:55;4.57;;;4.17;;
29776;SDS011;16677;52.224;7.484;2022-11-15T19:12:22;6.77;;;4.03;;
29776;SDS011;16677;52.224;7.484;2022-11-15T19:14:50;4.10;;;3.70;;
29776;SDS011;16677;52.224;7.484;2022-11-15T19:17:18;4.97;;;4.13;;
29776;SDS011;16677;52.224;7.484;2022-11-15T19:19:45;5.33;;;3.93;;
29776;SDS011;16677;52.224;7.484;2022-11-15T19:22:12;5.27;;;4.00;;
29776;SDS011;16677;52.224;7.484;2022-11-15T19:24:40;4.80;;;4.00;;
29776;SDS011;16677;52.224;7.484;2022-11-15T19:27:23;6.33;;;5.57;;
29776;SDS011;16677;52.224;7.484;2022-11-15T19:29:53;7.63;;;5.90;;
29776;SDS011;16677;52.224;7.484;2022-11-15T19:32:20;4.90;;;3.70;;
29776;SDS011;16677;52.224;7.484;2022-11-15T19:35:01;5.17;;;4.30;;
29776;SDS011;16677;52.224;7.484;2022-11-15T19:37:28;5.00;;;4.30;;
29776;SDS011;16677;52.224;7.484;2022-11-15T19:39:56;6.60;;;5.37;;
29776;SDS011;16677;52.224;7.484;2022-11-15T19:42:23;4.73;;;4.23;;
29776;SDS011;16677;52.224;7.484;2022-11-15T19:44:55;9.53;;;7.13;;
29776;SDS011;16677;52.224;7.484;2022-11-15T19:47:36;10.40;;;7.77;;
29776;SDS011;16677;52.224;7.484;2022-11-15T19:50:03;8.43;;;6.00;;
29776;SDS011;16677;52.224;7.484;2022-11-15T19:52:34;4.90;;;4.40;;
29776;SDS011;16677;52.224;7.484;2022-11-15T19:55:16;7.57;;;5.70;;
29776;SDS011;16677;52.224;7.484;2022-11-15T19:58:09;5.50;;;4.50;;
29776;SDS011;16677;52.224;7.484;2022-11-15T20:00:51;6.87;;;4.37;;
29776;SDS011;16677;52.224;7.484;2022-11-15T20:03:26;6.10;;;4.27;;
29776;SDS011;16677;52.224;7.484;2022-11-15T20:06:05;6.77;;;5.20;;
29776;SDS011;16677;52.224;7.484;2022-11-15T20:08:51;5.47;;;4.20;;
29776;SDS011;16677;52.224;7.484;2022-11-15T20:11:32;4.30;;;3.90;;
29776;SDS011;16677;52.224;7.484;2022-11-15T20:32:54;4.53;;;3.97;;
29776;SDS011;16677;52.224;7.484;2022-11-15T20:35:21;5.00;;;4.17;;
29776;SDS011;16677;52.224;7.484;2022-11-15T20:37:48;7.07;;;4.60;;
29776;SDS011;16677;52.224;7.484;2022-11-15T20:40:15;4.30;;;3.90;;
29776;SDS011;16677;52.224;7.484;2022-11-15T20:42:42;4.40;;;3.87;;
29776;SDS011;16677;52.224;7.484;2022-11-15T20:45:09;4.90;;;4.50;;
29776;SDS011;16677;52.224;7.484;2022-11-15T20:58:26;4.37;;;3.97;;
29776;SDS011;16677;52.224;7.484;2022-11-15T21:00:55;5.07;;;4.57;;
29776;SDS011;16677;52.224;7.484;2022-11-15T21:03:28;5.53;;;5.03;;
29776;SDS011;16677;52.224;7.484;2022-11-15T21:06:00;6.00;;;5.40;;
29776;SDS011;16677;52.224;7.484;2022-11-15T21:08:27;5.20;;;4.80;;
29776;SDS011;16677;52.224;7.484;2022-11-15T21:11:20;6.60;;;4.27;;
29776;SDS011;16677;52.224;7.484;2022-11-15T21:14:05;5.50;;;5.00;;
29776;SDS011;16677;52.224;7.484;2022-11-15T21:16:36;5.00;;;4.60;;
29776;SDS011;16677;52.224;7.484;2022-11-15T21:19:07;5.63;;;5.13;;
29776;SDS011;16677;52.224;7.484;2022-11-15T21:21:35;5.67;;;5.13;;
29776;SDS011;16677;52.224;7.484;2022-11-15T21:24:06;6.10;;;5.57;;
29776;SDS011;16677;52.224;7.484;2022-11-15T21:26:35;6.53;;;5.37;;
29776;SDS011;16677;52.224;7.484;2022-11-15T21:29:02;5.87;;;5.23;;
29776;SDS011;16677;52.224;7.484;2022-11-15T21:31:30;6.07;;;5.33;;
29776;SDS011;16677;52.224;7.484;2022-11-15T21:34:01;5.63;;;5.13;;
29776;SDS011;16677;52.224;7.484;2022-11-15T21:36:29;5.63;;;5.00;;
29776;SDS011;16677;52.224;7.484;2022-11-15T21:38:59;5.50;;;4.63;;
29776;SDS011;16677;52.224;7.484;2022-11-15T21:41:26;6.07;;;4.77;;
29776;SDS011;16677;52.224;7.484;2022-11-15T21:43:57;4.67;;;4.27;;
29776;SDS011;16677;52.224;7.484;2022-11-15T21:46:25;10.63;;;8.57;;
29776;SDS011;16677;52.224;7.484;2022-11-15T21:48:52;7.97;;;6.83;;
29776;SDS011;16677;52.224;7.484;2022-11-15T21:51:19;7.87;;;6.67;;
29776;SDS011;16677;52.224;7.484;2022-11-15T21:53:46;6.03;;;5.43;;
29776;SDS011;16677;52.224;7.484;2022-11-15T21:56:13;5.73;;;5.23;;
29776;SDS011;16677;52.224;7.484;2022-11-15T21:58:40;6.87;;;5.57;;
29776;SDS011;16677;52.224;7.484;2022-11-15T22:01:09;5.83;;;5.17;;
29776;SDS011;16677;52.224;7.484;2022-11-15T22:03:55;5.60;;;5.10;;
29776;SDS011;16677;52.224;7.484;2022-11-15T22:06:22;6.47;;;4.90;;
29776;SDS011;16677;52.224;7.484;2022-11-15T22:08:49;5.40;;;4.70;;
29776;SDS011;16677;52.224;7.484;2022-11-15T22:11:16;5.47;;;4.97;;
29776;SDS011;16677;52.224;7.484;2022-11-15T22:13:43;5.43;;;4.93;;
29776;SDS011;16677;52.224;7.484;2022-11-15T22:16:10;6.13;;;5.53;;
29776;SDS011;16677;52.224;7.484;2022-11-15T22:18:39;6.17;;;5.57;;
29776;SDS011;16677;52.224;7.484;2022-11-15T22:21:08;5.60;;;5.10;;
29776;SDS011;16677;52.224;7.484;2022-11-15T22:23:40;5.90;;;5.33;;
29776;SDS011;16677;52.224;7.484;2022-11-15T22:26:12;6.97;;;5.53;;
29776;SDS011;16677;52.224;7.484;2022-11-15T22:28:47;6.47;;;5.80;;
29776;SDS011;16677;52.224;7.484;2022-11-15T22:31:14;6.90;;;6.30;;
29776;SDS011;16677;52.224;7.484;2022-11-15T22:33:41;7.47;;;6.10;;
29776;SDS011;16677;52.224;7.484;2022-11-15T22:36:08;6.57;;;5.97;;
29776;SDS011;16677;52.224;7.484;2022-11-15T22:38:37;6.37;;;5.77;;
29776;SDS011;16677;52.224;7.484;2022-11-15T22:41:04;7.60;;;6.43;;
29776;SDS011;16677;52.224;7.484;2022-11-15T22:43:31;8.30;;;6.43;;
29776;SDS011;16677;52.224;7.484;2022-11-15T22:46:00;7.70;;;7.00;;
29776;SDS011;16677;52.224;7.484;2022-11-15T22:48:29;6.87;;;6.17;;
29776;SDS011;16677;52.224;7.484;2022-11-15T22:50:58;7.97;;;7.13;;
29776;SDS011;16677;52.224;7.484;2022-11-15T22:53:26;7.33;;;6.37;;
29776;SDS011;16677;52.224;7.484;2022-11-15T22:55:55;7.57;;;6.87;;
29776;SDS011;16677;52.224;7.484;2022-11-15T22:58:27;7.17;;;6.37;;
29776;SDS011;16677;52.224;7.484;2022-11-15T23:00:58;7.40;;;6.60;;
29776;SDS011;16677;52.224;7.484;2022-11-15T23:03:27;8.00;;;6.60;;
29776;SDS011;16677;52.224;7.484;2022-11-15T23:05:59;8.00;;;7.20;;
29776;SDS011;16677;52.224;7.484;2022-11-15T23:08:33;8.70;;;6.70;;
29776;SDS011;16677;52.224;7.484;2022-11-15T23:11:03;9.10;;;7.67;;
29776;SDS011;16677;52.224;7.484;2022-11-15T23:13:49;6.63;;;6.10;;
29776;SDS011;16677;52.224;7.484;2022-11-15T23:16:18;9.10;;;6.60;;
29776;SDS011;16677;52.224;7.484;2022-11-15T23:18:50;6.87;;;6.27;;
29776;SDS011;16677;52.224;7.484;2022-11-15T23:21:31;7.00;;;6.40;;
29776;SDS011;16677;52.224;7.484;2022-11-15T23:24:21;7.10;;;6.40;;
29776;SDS011;16677;52.224;7.484;2022-11-15T23:26:50;7.90;;;7.07;;
29776;SDS011;16677;52.224;7.484;2022-11-15T23:29:20;9.83;;;7.43;;
29776;SDS011;16677;52.224;7.484;2022-11-15T23:31:50;7.00;;;6.30;;
29776;SDS011;16677;52.224;7.484;2022-11-15T23:34:38;7.07;;;5.90;;
29776;SDS011;16677;52.224;7.484;2022-11-15T23:37:08;7.10;;;6.40;;
29776;SDS011;16677;52.224;7.484;2022-11-15T23:39:37;7.20;;;6.50;;
29776;SDS011;16677;52.224;7.484;2022-11-15T23:42:05;7.20;;;6.53;;
29776;SDS011;16677;52.224;7.484;2022-11-15T23:44:34;6.97;;;6.27;;
29776;SDS011;16677;52.224;7.484;2022-11-15T23:47:05;7.20;;;6.23;;
29776;SDS011;16677;52.224;7.484;2022-11-15T23:49:32;6.43;;;5.90;;
29776;SDS011;16677;52.224;7.484;2022-11-15T23:52:00;6.90;;;6.23;;
29776;SDS011;16677;52.224;7.484;2022-11-15T23:54:27;6.80;;;6.17;;
29776;SDS011;16677;52.224;7.484;2022-11-15T23:56:54;6.97;;;5.63;;
29776;SDS011;16677;52.224;7.484;2022-11-15T23:59:23;8.93;;;5.80;;
